createdAt,value
2018-08-20T00:01:53.768Z,18.60
2018-08-20T00:04:21.224Z,18.60
2018-08-20T00:06:54.221Z,18.60
2018-08-20T00:09:34.507Z,18.60
2018-08-20T00:12:02.419Z,18.60
2018-08-20T00:14:30.065Z,18.60
2018-08-20T00:16:58.296Z,18.50
2018-08-20T00:19:25.812Z,18.50
2018-08-20T00:21:53.384Z,18.40
2018-08-20T00:24:22.536Z,18.40
2018-08-20T00:26:50.054Z,18.40
2018-08-20T00:29:17.584Z,18.30
2018-08-20T00:31:45.104Z,18.30
2018-08-20T00:34:12.967Z,18.20
2018-08-20T00:36:40.665Z,18.20
2018-08-20T00:39:10.016Z,18.20
2018-08-20T00:41:37.584Z,18.10
2018-08-20T00:44:09.859Z,17.90
2018-08-20T00:46:37.509Z,17.80
2018-08-20T00:49:05.165Z,17.70
2018-08-20T00:51:33.008Z,17.70
2018-08-20T00:54:00.466Z,17.70
2018-08-20T00:56:28.041Z,17.70
2018-08-20T00:58:55.497Z,17.70
2018-08-20T01:01:23.048Z,17.70
2018-08-20T01:03:50.692Z,17.70
2018-08-20T01:06:18.155Z,17.70
2018-08-20T01:08:45.660Z,17.60
2018-08-20T01:11:13.228Z,17.60
2018-08-20T01:13:40.888Z,17.50
2018-08-20T01:16:08.461Z,17.50
2018-08-20T01:18:37.254Z,17.40
2018-08-20T01:21:05.283Z,17.30
2018-08-20T01:23:33.009Z,17.30
2018-08-20T01:26:01.122Z,17.20
2018-08-20T01:28:38.954Z,17.10
2018-08-20T01:31:06.835Z,17.10
2018-08-20T01:33:34.748Z,17.10
2018-08-20T01:36:02.372Z,17.10
2018-08-20T01:38:29.887Z,17.10
2018-08-20T01:40:57.404Z,17.10
2018-08-20T01:43:24.892Z,17.10
2018-08-20T01:45:52.365Z,17.10
2018-08-20T01:48:19.820Z,17.10
2018-08-20T01:50:47.356Z,17.10
2018-08-20T01:53:14.855Z,17.10
2018-08-20T01:55:44.101Z,17.00
2018-08-20T01:58:11.767Z,16.90
2018-08-20T02:00:39.391Z,16.90
2018-08-20T02:03:07.245Z,16.90
2018-08-20T02:05:35.583Z,16.90
2018-08-20T02:08:03.373Z,16.90
2018-08-20T02:10:30.898Z,16.90
2018-08-20T02:12:58.434Z,16.90
2018-08-20T02:15:25.918Z,16.80
2018-08-20T02:17:53.693Z,16.80
2018-08-20T02:20:21.231Z,16.60
2018-08-20T02:22:48.844Z,16.50
2018-08-20T02:25:16.341Z,16.40
2018-08-20T02:27:43.923Z,16.40
2018-08-20T02:30:11.720Z,16.40
2018-08-20T02:32:39.360Z,16.20
2018-08-20T02:35:07.531Z,16.30
2018-08-20T02:37:40.817Z,16.30
2018-08-20T02:40:09.435Z,16.30
2018-08-20T02:42:37.264Z,16.30
2018-08-20T02:45:06.973Z,16.30
2018-08-20T02:47:34.895Z,16.30
2018-08-20T02:50:02.797Z,16.10
2018-08-20T02:52:30.377Z,16.10
2018-08-20T02:54:57.838Z,16.00
2018-08-20T02:57:25.355Z,15.90
2018-08-20T02:59:52.825Z,15.90
2018-08-20T03:02:20.373Z,15.90
2018-08-20T03:04:47.900Z,15.80
2018-08-20T03:07:15.804Z,15.80
2018-08-20T03:09:43.615Z,15.80
2018-08-20T03:12:11.385Z,15.80
2018-08-20T03:14:39.317Z,15.80
2018-08-20T03:17:07.615Z,15.70
2018-08-20T03:19:36.056Z,15.70
2018-08-20T03:22:04.441Z,15.60
2018-08-20T03:24:32.142Z,15.70
2018-08-20T03:26:59.853Z,15.70
2018-08-20T03:29:27.373Z,15.70
2018-08-20T03:31:54.885Z,15.70
2018-08-20T03:34:22.356Z,15.70
2018-08-20T03:36:49.823Z,15.70
2018-08-20T03:39:17.340Z,15.70
2018-08-20T03:41:44.809Z,15.60
2018-08-20T03:44:12.560Z,15.60
2018-08-20T03:46:40.445Z,15.60
2018-08-20T03:49:08.420Z,15.60
2018-08-20T03:51:36.234Z,15.70
2018-08-20T03:54:04.160Z,15.80
2018-08-20T03:56:31.707Z,15.70
2018-08-20T03:58:59.308Z,15.70
2018-08-20T04:01:26.772Z,15.60
2018-08-20T04:03:54.708Z,15.60
2018-08-20T04:06:22.193Z,15.50
2018-08-20T04:08:49.620Z,15.50
2018-08-20T04:11:17.208Z,15.40
2018-08-20T04:13:45.278Z,15.40
2018-08-20T04:16:13.362Z,15.30
2018-08-20T04:19:44.321Z,15.30
2018-08-20T04:22:12.024Z,15.30
2018-08-20T04:24:39.766Z,15.30
2018-08-20T04:27:07.735Z,15.20
2018-08-20T04:29:35.704Z,15.30
2018-08-20T04:32:03.818Z,15.40
2018-08-20T04:34:31.426Z,15.40
2018-08-20T04:36:58.944Z,15.40
2018-08-20T04:39:26.452Z,15.40
2018-08-20T04:41:53.987Z,15.50
2018-08-20T04:44:21.478Z,15.50
2018-08-20T04:46:49.027Z,15.60
2018-08-20T04:49:16.500Z,15.50
2018-08-20T04:51:44.004Z,15.50
2018-08-20T04:54:11.969Z,15.50
2018-08-20T04:56:39.725Z,15.50
2018-08-20T04:59:07.917Z,15.50
2018-08-20T05:01:35.980Z,15.50
2018-08-20T05:04:04.722Z,15.50
2018-08-20T05:06:35.555Z,15.60
2018-08-20T05:09:04.933Z,15.60
2018-08-20T05:11:33.490Z,15.60
2018-08-20T05:14:01.077Z,15.60
2018-08-20T05:16:28.536Z,15.70
2018-08-20T05:18:59.762Z,15.70
2018-08-20T05:21:27.155Z,15.80
2018-08-20T05:23:54.636Z,15.90
2018-08-20T05:26:22.188Z,16.00
2018-08-20T05:28:49.685Z,16.00
2018-08-20T05:31:17.169Z,16.10
2018-08-20T05:33:45.271Z,16.30
2018-08-20T05:36:13.561Z,16.40
2018-08-20T05:38:41.540Z,16.40
2018-08-20T05:41:10.019Z,16.50
2018-08-20T05:43:38.486Z,16.50
2018-08-20T05:46:06.954Z,16.50
2018-08-20T05:48:35.535Z,16.50
2018-08-20T05:51:04.022Z,16.70
2018-08-20T05:53:32.040Z,16.70
2018-08-20T05:56:00.172Z,16.80
2018-08-20T05:58:27.844Z,16.90
2018-08-20T06:00:55.916Z,16.90
2018-08-20T06:03:23.936Z,17.10
2018-08-20T06:05:51.654Z,17.20
2018-08-20T06:08:19.466Z,17.40
2018-08-20T06:10:47.370Z,17.60
2018-08-20T06:13:15.221Z,17.70
2018-08-20T06:15:43.222Z,17.90
2018-08-20T06:18:11.375Z,18.10
2018-08-20T06:20:39.648Z,18.30
2018-08-20T06:23:07.764Z,18.40
2018-08-20T06:25:35.963Z,18.60
2018-08-20T06:28:04.212Z,18.60
2018-08-20T06:30:32.246Z,18.80
2018-08-20T06:33:00.182Z,19.30
2018-08-20T06:35:28.050Z,20.00
2018-08-20T06:37:56.029Z,20.60
2018-08-20T06:40:23.932Z,21.20
2018-08-20T06:42:51.887Z,21.80
2018-08-20T06:45:19.884Z,22.20
2018-08-20T06:47:47.734Z,22.50
2018-08-20T06:50:15.999Z,22.80
2018-08-20T06:52:44.654Z,23.30
2018-08-20T06:55:13.830Z,23.60
2018-08-20T06:57:42.677Z,23.80
2018-08-20T07:00:11.603Z,24.30
2018-08-20T07:02:40.006Z,24.50
2018-08-20T07:05:08.317Z,24.90
2018-08-20T07:07:37.478Z,25.20
2018-08-20T07:10:08.229Z,25.40
2018-08-20T07:12:36.541Z,25.60
2018-08-20T07:15:05.230Z,25.90
2018-08-20T07:17:33.827Z,26.00
2018-08-20T07:20:01.624Z,26.10
2018-08-20T07:22:29.545Z,26.40
2018-08-20T07:24:57.480Z,26.60
2018-08-20T07:27:25.601Z,26.50
2018-08-20T07:29:53.483Z,26.80
2018-08-20T07:32:21.590Z,27.00
2018-08-20T07:34:49.356Z,27.10
2018-08-20T07:37:17.616Z,27.20
2018-08-20T07:39:47.665Z,27.30
2018-08-20T07:42:15.678Z,27.40
2018-08-20T07:44:44.429Z,27.40
2018-08-20T07:47:12.554Z,27.50
2018-08-20T07:49:40.496Z,27.40
2018-08-20T07:52:09.724Z,27.60
2018-08-20T07:54:38.366Z,27.60
2018-08-20T07:57:07.805Z,27.70
2018-08-20T07:59:36.146Z,27.80
2018-08-20T08:02:04.344Z,27.90
2018-08-20T08:04:32.879Z,27.90
2018-08-20T08:07:00.890Z,27.80
2018-08-20T08:09:28.701Z,27.90
2018-08-20T08:11:56.577Z,28.00
2018-08-20T08:14:24.322Z,27.90
2018-08-20T08:16:52.209Z,28.00
2018-08-20T08:19:20.175Z,28.10
2018-08-20T08:21:47.943Z,28.00
2018-08-20T08:24:15.866Z,27.90
2018-08-20T08:26:43.954Z,27.90
2018-08-20T08:29:11.934Z,28.10
2018-08-20T08:31:39.838Z,27.90
2018-08-20T08:34:07.651Z,27.90
2018-08-20T08:36:35.871Z,27.60
2018-08-20T08:39:05.956Z,27.90
2018-08-20T08:41:34.122Z,28.20
2018-08-20T08:44:02.018Z,27.90
2018-08-20T08:46:29.880Z,28.00
2018-08-20T08:48:57.752Z,28.20
2018-08-20T08:51:25.562Z,28.40
2018-08-20T08:53:53.373Z,27.90
2018-08-20T08:56:21.233Z,28.10
2018-08-20T08:58:49.184Z,28.10
2018-08-20T09:01:16.862Z,28.10
2018-08-20T09:03:44.863Z,28.10
2018-08-20T09:06:12.773Z,28.00
2018-08-20T09:08:40.634Z,28.10
2018-08-20T09:11:08.565Z,28.20
2018-08-20T09:13:36.787Z,28.30
2018-08-20T09:16:04.909Z,28.50
2018-08-20T09:18:32.835Z,28.30
2018-08-20T09:21:00.702Z,28.20
2018-08-20T09:23:28.645Z,28.30
2018-08-20T09:25:56.589Z,28.30
2018-08-20T09:28:24.566Z,27.80
2018-08-20T09:30:52.390Z,27.70
2018-08-20T09:33:20.577Z,27.80
2018-08-20T09:35:48.540Z,27.60
2018-08-20T09:38:16.550Z,27.80
2018-08-20T09:40:44.514Z,27.90
2018-08-20T09:43:12.573Z,27.80
2018-08-20T09:45:40.633Z,27.80
2018-08-20T09:48:08.776Z,27.60
2018-08-20T09:50:36.943Z,27.60
2018-08-20T09:53:06.286Z,27.50
2018-08-20T09:55:34.240Z,27.60
2018-08-20T09:58:02.227Z,27.60
2018-08-20T10:00:36.025Z,27.70
2018-08-20T10:03:04.592Z,27.80
2018-08-20T10:05:32.432Z,27.80
2018-08-20T10:08:00.374Z,27.80
2018-08-20T10:10:28.456Z,27.70
2018-08-20T10:12:56.403Z,27.80
2018-08-20T10:15:24.256Z,27.90
2018-08-20T10:17:52.286Z,27.90
2018-08-20T10:20:20.114Z,27.90
2018-08-20T10:22:47.917Z,27.90
2018-08-20T10:25:15.802Z,27.90
2018-08-20T10:27:43.746Z,28.00
2018-08-20T10:30:12.504Z,28.00
2018-08-20T10:32:40.925Z,28.10
2018-08-20T10:35:09.450Z,28.10
2018-08-20T10:37:37.685Z,28.30
2018-08-20T10:40:07.223Z,28.20
2018-08-20T10:42:35.669Z,28.40
2018-08-20T10:45:10.110Z,28.60
2018-08-20T10:47:38.201Z,28.60
2018-08-20T10:50:06.882Z,28.70
2018-08-20T10:52:35.288Z,28.30
2018-08-20T10:55:03.870Z,28.40
2018-08-20T10:57:31.925Z,28.50
2018-08-20T10:59:59.662Z,28.80
2018-08-20T11:02:27.530Z,28.90
2018-08-20T11:04:55.471Z,29.10
2018-08-20T11:07:23.937Z,29.30
2018-08-20T11:09:51.756Z,29.50
2018-08-20T11:12:19.623Z,29.30
2018-08-20T11:14:47.671Z,29.20
2018-08-20T11:17:15.553Z,29.40
2018-08-20T11:19:43.805Z,29.60
2018-08-20T11:22:11.943Z,29.50
2018-08-20T11:24:40.428Z,29.40
2018-08-20T11:27:08.875Z,29.20
2018-08-20T11:29:37.104Z,29.20
2018-08-20T11:32:05.413Z,29.10
2018-08-20T11:34:33.492Z,29.10
2018-08-20T11:37:01.479Z,29.30
2018-08-20T11:39:29.536Z,29.60
2018-08-20T11:41:57.356Z,29.90
2018-08-20T11:44:25.448Z,30.10
2018-08-20T11:46:53.610Z,30.30
2018-08-20T11:49:21.686Z,30.20
2018-08-20T11:51:49.577Z,30.00
2018-08-20T11:54:17.700Z,29.80
2018-08-20T11:56:45.913Z,29.50
2018-08-20T11:59:13.980Z,29.40
2018-08-20T12:01:41.906Z,29.40
2018-08-20T12:04:10.208Z,29.10
2018-08-20T12:06:38.469Z,28.70
2018-08-20T12:09:06.978Z,28.70
2018-08-20T12:11:35.490Z,28.60
2018-08-20T12:14:03.789Z,28.60
2018-08-20T12:16:31.768Z,28.60
2018-08-20T12:18:59.714Z,28.40
2018-08-20T12:21:27.634Z,28.40
2018-08-20T12:23:55.464Z,28.10
2018-08-20T12:26:30.042Z,28.00
2018-08-20T12:28:58.261Z,28.10
2018-08-20T12:31:26.225Z,27.70
2018-08-20T12:33:54.198Z,27.60
2018-08-20T12:36:22.153Z,27.40
2018-08-20T12:38:50.161Z,27.40
2018-08-20T12:41:18.083Z,27.40
2018-08-20T12:43:46.060Z,27.60
2018-08-20T12:46:18.032Z,27.70
2018-08-20T12:48:47.143Z,27.80
2018-08-20T12:51:14.997Z,27.90
2018-08-20T12:53:43.316Z,28.10
2018-08-20T12:56:11.601Z,28.20
2018-08-20T12:58:45.410Z,28.20
2018-08-20T13:01:13.740Z,28.20
2018-08-20T13:03:42.070Z,28.30
2018-08-20T13:06:10.520Z,28.40
2018-08-20T13:08:38.673Z,28.30
2018-08-20T13:11:07.115Z,28.40
2018-08-20T13:13:35.591Z,28.50
2018-08-20T13:16:04.102Z,28.50
2018-08-20T13:18:32.181Z,28.60
2018-08-20T13:21:00.480Z,28.60
2018-08-20T13:23:28.425Z,28.50
2018-08-20T13:25:56.299Z,28.40
2018-08-20T13:28:24.180Z,28.10
2018-08-20T13:30:52.047Z,28.00
2018-08-20T13:33:20.038Z,28.00
2018-08-20T13:35:48.737Z,27.90
2018-08-20T13:38:16.729Z,28.00
2018-08-20T13:40:44.621Z,27.90
2018-08-20T13:43:12.790Z,27.80
2018-08-20T13:45:41.015Z,27.80
2018-08-20T13:48:09.582Z,27.70
2018-08-20T13:50:37.866Z,27.80
2018-08-20T13:53:06.542Z,27.70
2018-08-20T13:55:34.825Z,27.80
2018-08-20T13:58:03.126Z,27.90
2018-08-20T14:00:31.134Z,27.90
2018-08-20T14:02:59.110Z,27.90
2018-08-20T14:05:27.118Z,27.80
2018-08-20T14:07:55.098Z,27.80
2018-08-20T14:10:22.887Z,27.60
2018-08-20T14:12:50.815Z,27.40
2018-08-20T14:15:18.737Z,27.30
2018-08-20T14:17:46.684Z,27.40
2018-08-20T14:20:15.795Z,27.20
2018-08-20T14:22:44.565Z,27.10
2018-08-20T14:25:12.642Z,27.20
2018-08-20T14:27:40.797Z,27.40
2018-08-20T14:30:10.802Z,27.30
2018-08-20T14:32:41.901Z,27.30
2018-08-20T14:35:10.532Z,27.20
2018-08-20T14:37:39.434Z,27.20
2018-08-20T14:40:13.876Z,27.20
2018-08-20T14:42:44.299Z,27.30
2018-08-20T14:45:13.762Z,27.20
2018-08-20T14:47:43.447Z,27.20
2018-08-20T14:50:14.003Z,27.30
2018-08-20T14:52:42.697Z,27.20
2018-08-20T14:55:11.482Z,27.30
2018-08-20T14:57:39.908Z,27.40
2018-08-20T15:00:11.191Z,27.40
2018-08-20T15:02:39.667Z,27.40
2018-08-20T15:05:08.599Z,27.40
2018-08-20T15:07:37.074Z,27.40
2018-08-20T15:10:06.622Z,27.50
2018-08-20T15:12:35.258Z,27.60
2018-08-20T15:15:03.607Z,27.70
2018-08-20T15:17:31.561Z,27.70
2018-08-20T15:20:06.828Z,27.70
2018-08-20T15:22:36.093Z,27.70
2018-08-20T15:25:04.693Z,27.50
2018-08-20T15:27:33.256Z,27.50
2018-08-20T15:30:01.194Z,27.30
2018-08-20T15:32:29.114Z,27.30
2018-08-20T15:34:57.037Z,27.30
2018-08-20T15:37:25.036Z,27.10
2018-08-20T15:39:52.936Z,27.00
2018-08-20T15:42:21.079Z,26.80
2018-08-20T15:44:49.146Z,26.80
2018-08-20T15:47:17.442Z,26.80
2018-08-20T15:49:45.847Z,26.70
2018-08-20T15:52:14.276Z,26.80
2018-08-20T15:54:42.795Z,26.50
2018-08-20T15:57:10.995Z,26.40
2018-08-20T15:59:39.361Z,26.20
2018-08-20T16:02:07.848Z,26.10
2018-08-20T16:04:36.461Z,26.00
2018-08-20T16:07:05.693Z,25.90
2018-08-20T16:09:34.500Z,25.90
2018-08-20T16:12:02.613Z,25.80
2018-08-20T16:14:30.826Z,25.90
2018-08-20T16:16:58.756Z,26.00
2018-08-20T16:19:27.039Z,26.10
2018-08-20T16:21:54.985Z,26.10
2018-08-20T16:24:23.034Z,26.00
2018-08-20T16:26:51.003Z,26.00
2018-08-20T16:29:19.065Z,26.00
2018-08-20T16:31:48.466Z,26.00
2018-08-20T16:34:16.528Z,26.00
2018-08-20T16:36:45.992Z,25.90
2018-08-20T16:39:14.464Z,26.00
2018-08-20T16:41:42.613Z,25.90
2018-08-20T16:44:11.385Z,25.90
2018-08-20T16:46:39.833Z,25.80
2018-08-20T16:49:09.760Z,25.80
2018-08-20T16:51:38.438Z,25.80
2018-08-20T16:54:08.254Z,25.90
2018-08-20T16:56:37.431Z,25.80
2018-08-20T16:59:11.798Z,25.50
2018-08-20T17:01:40.354Z,25.20
2018-08-20T17:04:23.792Z,24.90
2018-08-20T17:06:52.006Z,24.90
2018-08-20T17:09:20.013Z,24.80
2018-08-20T17:11:48.154Z,24.70
2018-08-20T17:14:16.268Z,24.70
2018-08-20T17:16:44.541Z,24.60
2018-08-20T17:19:13.054Z,24.60
2018-08-20T17:21:41.007Z,24.60
2018-08-20T17:24:09.582Z,24.50
2018-08-20T17:26:38.856Z,24.50
2018-08-20T17:29:10.937Z,24.40
2018-08-20T17:31:39.716Z,24.40
2018-08-20T17:34:07.914Z,24.40
2018-08-20T17:36:39.738Z,24.30
2018-08-20T17:39:08.912Z,24.20
2018-08-20T17:41:40.486Z,24.20
2018-08-20T17:44:09.524Z,24.10
2018-08-20T17:46:39.249Z,24.10
2018-08-20T17:49:10.837Z,24.00
2018-08-20T17:51:39.860Z,23.90
2018-08-20T17:54:09.198Z,23.80
2018-08-20T17:56:37.485Z,23.90
2018-08-20T17:59:12.462Z,23.80
2018-08-20T18:01:41.560Z,23.70
2018-08-20T18:04:10.235Z,23.70
2018-08-20T18:06:55.062Z,23.60
2018-08-20T18:09:22.951Z,23.50
2018-08-20T18:11:53.096Z,23.60
2018-08-20T18:14:22.302Z,23.50
2018-08-20T18:16:50.318Z,23.50
2018-08-20T18:19:34.932Z,23.40
2018-08-20T18:22:03.231Z,23.40
2018-08-20T18:24:31.264Z,23.40
2018-08-20T18:26:59.791Z,23.40
2018-08-20T18:29:27.908Z,23.30
2018-08-20T18:32:00.184Z,23.30
2018-08-20T18:34:28.145Z,23.30
2018-08-20T18:36:56.250Z,23.30
2018-08-20T18:39:28.220Z,23.30
2018-08-20T18:41:58.606Z,23.30
2018-08-20T18:44:26.771Z,23.30
2018-08-20T18:46:54.884Z,23.20
2018-08-20T18:49:23.457Z,23.20
2018-08-20T18:51:57.023Z,23.20
2018-08-20T18:54:26.231Z,23.20
2018-08-20T18:56:58.843Z,23.10
2018-08-20T18:59:26.783Z,23.10
2018-08-20T19:01:55.182Z,23.00
2018-08-20T19:04:23.286Z,23.00
2018-08-20T19:06:56.852Z,22.90
2018-08-20T19:09:26.892Z,22.90
2018-08-20T19:11:54.867Z,22.90
2018-08-20T19:14:23.036Z,22.90
2018-08-20T19:16:51.169Z,22.90
2018-08-20T19:19:19.225Z,22.90
2018-08-20T19:21:47.299Z,22.90
2018-08-20T19:24:15.627Z,22.90
2018-08-20T19:26:43.637Z,22.80
2018-08-20T19:29:30.360Z,22.80
2018-08-20T19:31:58.350Z,22.70
2018-08-20T19:34:26.320Z,22.70
2018-08-20T19:36:54.389Z,22.70
2018-08-20T19:39:23.666Z,22.70
2018-08-20T19:41:51.414Z,22.60
2018-08-20T19:44:19.086Z,22.70
2018-08-20T19:46:46.861Z,22.60
2018-08-20T19:49:15.202Z,22.70
2018-08-20T19:51:44.068Z,22.60
2018-08-20T19:54:13.764Z,22.60
2018-08-20T19:56:41.404Z,22.50
2018-08-20T19:59:10.769Z,22.50
2018-08-20T20:01:39.703Z,22.50
2018-08-20T20:04:13.070Z,22.50
2018-08-20T20:06:41.849Z,22.50
2018-08-20T20:09:11.117Z,22.50
2018-08-20T20:11:45.541Z,22.40
2018-08-20T20:14:13.741Z,22.50
2018-08-20T20:16:47.364Z,22.50
2018-08-20T20:19:15.537Z,22.50
2018-08-20T20:21:43.698Z,22.50
2018-08-20T20:24:12.356Z,22.40
2018-08-20T20:26:40.932Z,22.40
2018-08-20T20:29:10.346Z,22.40
2018-08-20T20:31:40.205Z,22.40
2018-08-20T20:34:09.245Z,22.40
2018-08-20T20:36:38.526Z,22.40
2018-08-20T20:39:10.310Z,22.40
2018-08-20T20:41:39.048Z,22.40
2018-08-20T20:44:08.701Z,22.40
2018-08-20T20:46:38.296Z,22.40
2018-08-20T20:49:07.258Z,22.40
2018-08-20T20:51:44.770Z,22.40
2018-08-20T20:54:12.768Z,22.30
2018-08-20T20:56:40.840Z,22.20
2018-08-20T20:59:09.032Z,22.20
2018-08-20T21:01:37.609Z,22.20
2018-08-20T21:04:07.751Z,22.10
2018-08-20T21:06:40.235Z,22.00
2018-08-20T21:09:12.100Z,22.00
2018-08-20T21:11:40.460Z,21.90
2018-08-20T21:14:08.751Z,21.80
2018-08-20T21:16:38.346Z,21.80
2018-08-20T21:19:07.043Z,21.70
2018-08-20T21:21:36.800Z,21.70
2018-08-20T21:24:08.154Z,21.70
2018-08-20T21:29:22.966Z,21.60
2018-08-20T21:31:50.587Z,21.60
2018-08-20T21:34:18.454Z,21.50
2018-08-20T21:36:46.129Z,21.50
2018-08-20T21:39:13.655Z,21.50
2018-08-20T21:41:41.274Z,21.40
2018-08-20T21:44:09.059Z,21.40
2018-08-20T21:46:36.804Z,21.40
2018-08-20T21:49:05.548Z,21.40
2018-08-20T21:51:41.703Z,21.30
2018-08-20T21:54:09.412Z,21.30
2018-08-20T21:56:47.859Z,21.20
2018-08-20T21:59:15.411Z,21.20
2018-08-20T22:01:43.424Z,21.00
2018-08-20T22:04:20.020Z,21.00
2018-08-20T22:06:48.199Z,21.00
2018-08-20T22:09:15.756Z,20.90
2018-08-20T22:11:43.363Z,20.90
2018-08-20T22:14:10.963Z,20.90
2018-08-20T22:16:38.843Z,20.80
2018-08-20T22:19:06.737Z,20.90
2018-08-20T22:21:34.668Z,20.80
2018-08-20T22:24:03.080Z,20.80
2018-08-20T22:26:30.731Z,20.80
2018-08-20T22:28:58.652Z,20.80
2018-08-20T22:31:26.209Z,20.80
2018-08-20T22:34:00.595Z,20.80
2018-08-20T22:36:29.488Z,20.90
2018-08-20T22:38:59.172Z,20.80
2018-08-20T22:41:27.834Z,20.80
2018-08-20T22:43:55.356Z,20.80
2018-08-20T22:46:23.654Z,20.80
2018-08-20T22:48:52.586Z,20.80
2018-08-20T22:51:20.887Z,20.70
2018-08-20T22:53:49.761Z,20.70
2018-08-20T22:56:23.783Z,20.60
2018-08-20T22:58:51.710Z,20.50
2018-08-20T23:01:19.382Z,20.40
2018-08-20T23:03:46.973Z,20.40
2018-08-20T23:06:14.604Z,20.30
2018-08-20T23:08:42.361Z,20.40
2018-08-20T23:11:10.068Z,20.30
2018-08-20T23:13:37.724Z,20.40
2018-08-20T23:16:05.486Z,20.30
2018-08-20T23:18:33.575Z,20.30
2018-08-20T23:21:01.136Z,20.30
2018-08-20T23:23:34.169Z,20.30
2018-08-20T23:26:05.512Z,20.20
2018-08-20T23:28:34.388Z,20.20
2018-08-20T23:31:02.549Z,20.20
2018-08-20T23:33:31.204Z,20.20
2018-08-20T23:35:59.001Z,20.10
2018-08-20T23:38:29.158Z,20.10
2018-08-20T23:40:59.370Z,20.10
2018-08-20T23:43:27.867Z,20.10
2018-08-20T23:45:56.020Z,20.10
2018-08-20T23:48:24.669Z,20.00
2018-08-20T23:50:58.400Z,20.10
2018-08-20T23:53:33.465Z,20.10
2018-08-20T23:56:01.610Z,20.00
2018-08-20T23:58:29.566Z,20.00
